KCNO/CNO METAR and TAF weather

Enter ICAO airport designator
Station Type Date Time Source
KCNO METAR 2019/10/21 23:05 UTC NOAA

KCNO 212305Z 10008KT 10SM FEW120 34/01 A2997 RMK AO2 T03440011 $


Station Type Date Time Source
KCNO Decoded METAR 2019/10/21 23:05 UTC NOAA

CHINO AIRPORT, CA, United States (KCNO) 33-58N 117-38W 207M
Oct 21, 2019 - 07:05 PM EDT / 2019.10.21 2305 UTC
Wind: from the E (100 degrees) at 9 MPH (8 KT):0
Visibility: 10 mile(s):0
Sky conditions: mostly clear
Temperature: 93.9 F (34.4 C)
Dew Point: 34.0 F (1.1 C)
Relative Humidity: 12%
Pressure (altimeter): 29.97 in. Hg (1014 hPa)
ob: KCNO 212305Z 10008KT 10SM FEW120 34/01 A2997 RMK AO2 T03440011
cycle: 23

Station Type Date Time Source
KCNO TAF UTC NOAA

Error!

Example: see airport list